sim
Sign-in with your pilot id or email,
or register
Callsign
Passwort

Schedule Details

Flight Number: DLH2167
Departure: Leipzig Halle Airport (EDDP) at 11:30
Arrival: Munich Airport (EDDM) at 12:30
Route: Lufthansa Passenger Schedule. Enter filed route here before submitting Pirep.

Weather Information
Getting current METAR information for EDDP 211120Z 10008KT 060V140 CAVOK 24/09 Q1017 NOSIG
Getting current METAR information for EDDM 211120Z 06004KT 010V130 CAVOK 21/13 Q1017 NOSIG

Schedule Frequency

Route Map